Brimley, MI (49715)

2:59 PM EST on December 07, 2016 (GMT -0500)
BMCC on Lake Superior | | Change Station
Active Advisory: Lake Effect Snow Advisory

Elev 645 ft 46.45 °N, 84.61 °W | Updated 1 second ago

Overcast
Overcast
27.2 °F
Feels Like 21 °F
N
5.6
Wind Variable Wind from SW
Gusts 26.6 mph

Today
High -- | Low -- °F
--% Chance of Precip.
Yesterday
High -- | Low -- °F
Precip. -- in
Pressure 29.75 in
Visibility 10.0 miles
Clouds Mostly Cloudy 2900 ft
Overcast 3800 ft
Windchill 21 °F
Dew Point 18 °F
Humidity 67%
Rainfall 0.00 in
Snow Depth Not available.
8:08 AM 4:51 PM
First Quarter, 55% visible
METAR KMCD 071955Z AUTO 25020G33KT 10SM BKN029 OVC038 M01/M06 A2975 RMK AO2 T10111060
Pressure 29.75 in
Visibility 10.0 miles
Clouds Mostly Cloudy 2900 ft
Overcast 3800 ft
Windchill 21 °F
Dew Point 18 °F
Humidity 67%
Rainfall 0.00 in
Snow Depth Not available.
8:08 AM 4:51 PM
First Quarter, 55% visible
METAR KMCD 071955Z AUTO 25020G33KT 10SM BKN029 OVC038 M01/M06 A2975 RMK AO2 T10111060

10-Day Weather Forecast

Almanac

Astronomy

Dec. 07, 2016 Rise Set
Actual Time
Civil Twilight
Nautical Twilight
Astronomical Twilight
Moon
Length of Visible Light
Length of Day
Tomorrow will be .
, % of the Moon is Illuminated

Today's Extremes

State Highs State Lows

Community

WunderPhotos

Upload Photos

1,956,164 photos uploaded!

WunderBlog® & News

Nearby

Air Quality

  Air Quality AQ Index Pollutant
Not available.

Snow Depth

Station Depth Elevation

Earthquake Activity

City Distance Mag. Time & Date
Minimum magnitude displayed is 2.5.

Coastal Water Temperatures

Place Temperature

Stations

Nearby Weather Stations

Station Location Temp. Windchill Dew Point Humidity Wind Precip. Elev Updated Type
                   

Watches & Warnings

Lake Effect Snow Advisory
Issued: 3:50 AM EST Dec. 7, 2016 – National Weather Service

... Lake effect Snow Advisory in effect from midnight tonight to
3 PM EST Friday...

The National Weather Service in Gaylord has issued a lake effect
Snow Advisory... which is in effect from midnight tonight to 3 PM
EST Friday.

* Expect snow to intensify after midnight tonight with
accumulating snowfall continuing through Friday.

* The heaviest snowfall rates are expected to occur late tonight
through Thursday morning.

* Total snow accumulations of 2 to 5 inches are expected with
locally higher amounts.

* Look for reduced visibilities at times due to blowing snow.

* Plan on slippery Road conditions... including during the
morning and afternoon commutes on Thursday.

Precautionary/preparedness actions...

A lake effect Snow Advisory Means Lake-effect snow is forecast
that will make travel difficult in some areas. Use caution when
traveling. For the latest Road conditions... go to the mdot
website at Michigan.Gov.


Mek